createdAt,value
2022-12-09T00:01:27.478Z,4.60
2022-12-09T00:03:56.384Z,5.50
2022-12-09T00:06:27.601Z,4.70
2022-12-09T00:08:56.903Z,5.10
2022-12-09T00:11:26.222Z,4.30
2022-12-09T00:13:55.787Z,4.60
2022-12-09T00:16:24.916Z,4.57
2022-12-09T00:18:54.003Z,4.60
2022-12-09T00:21:23.639Z,4.47
2022-12-09T00:23:54.307Z,4.53
2022-12-09T00:26:24.471Z,5.17
2022-12-09T00:28:53.133Z,4.30
2022-12-09T00:31:24.391Z,4.43
2022-12-09T00:33:54.295Z,4.67
2022-12-09T00:36:23.655Z,4.57
2022-12-09T00:38:53.625Z,4.47
2022-12-09T00:41:22.491Z,4.63
2022-12-09T00:43:51.100Z,4.80
2022-12-09T00:46:19.797Z,4.43
2022-12-09T00:48:48.787Z,4.53
2022-12-09T00:51:18.559Z,4.53
2022-12-09T00:53:47.453Z,4.50
2022-12-09T00:56:17.476Z,4.77
2022-12-09T00:58:46.090Z,4.27
2022-12-09T01:01:15.093Z,4.10
2022-12-09T01:03:44.188Z,4.17
2022-12-09T01:06:14.321Z,3.93
2022-12-09T01:08:43.157Z,4.20
2022-12-09T01:11:12.610Z,4.27
2022-12-09T01:13:42.796Z,4.17
2022-12-09T01:16:15.750Z,4.40
2022-12-09T01:18:44.564Z,3.73
2022-12-09T01:21:13.466Z,4.83
2022-12-09T01:23:42.491Z,4.87
2022-12-09T01:26:11.998Z,4.90
2022-12-09T01:28:41.245Z,4.70
2022-12-09T01:31:12.493Z,4.90
2022-12-09T01:33:41.111Z,4.53
2022-12-09T01:36:11.336Z,4.27
2022-12-09T01:38:40.151Z,4.73
2022-12-09T01:41:08.823Z,4.80
2022-12-09T01:43:37.774Z,4.23
2022-12-09T01:46:06.595Z,4.10
2022-12-09T01:48:38.444Z,4.20
2022-12-09T01:51:12.387Z,4.70
2022-12-09T01:53:43.396Z,3.83
2022-12-09T01:56:13.880Z,4.07
2022-12-09T01:58:42.811Z,3.73
2022-12-09T02:01:11.418Z,3.73
2022-12-09T02:03:41.764Z,3.63
2022-12-09T02:06:10.494Z,3.87
2022-12-09T02:08:39.424Z,3.80
2022-12-09T02:11:13.834Z,3.37
2022-12-09T02:13:45.991Z,3.17
2022-12-09T02:16:17.223Z,3.60
2022-12-09T02:18:49.664Z,4.10
2022-12-09T02:21:21.126Z,4.10
2022-12-09T02:23:52.452Z,3.47
2022-12-09T02:26:24.701Z,3.53
2022-12-09T02:29:16.120Z,4.00
2022-12-09T02:32:07.509Z,4.33
2022-12-09T02:34:39.484Z,4.20
2022-12-09T02:37:10.772Z,4.63
2022-12-09T02:39:41.466Z,5.40
2022-12-09T02:42:11.110Z,4.80
2022-12-09T02:44:40.676Z,4.77
2022-12-09T02:47:11.071Z,4.63
2022-12-09T02:49:42.604Z,4.73
2022-12-09T02:52:11.812Z,4.57
2022-12-09T02:54:40.889Z,4.60
2022-12-09T02:57:14.615Z,5.00
2022-12-09T02:59:43.602Z,4.57
2022-12-09T03:02:18.659Z,4.30
2022-12-09T03:04:51.227Z,4.40
2022-12-09T03:07:22.708Z,4.50
2022-12-09T03:09:54.660Z,4.33
2022-12-09T03:12:24.152Z,4.07
2022-12-09T03:14:55.095Z,4.17
2022-12-09T03:17:27.353Z,3.90
2022-12-09T03:19:58.980Z,3.97
2022-12-09T03:22:30.359Z,4.40
2022-12-09T03:25:01.734Z,3.80
2022-12-09T03:27:33.003Z,3.87
2022-12-09T03:30:02.022Z,3.93
2022-12-09T03:32:30.719Z,3.77
2022-12-09T03:35:03.405Z,3.27
2022-12-09T03:37:32.373Z,3.30
2022-12-09T03:40:01.425Z,3.60
2022-12-09T03:42:33.038Z,3.50
2022-12-09T03:45:03.685Z,3.30
2022-12-09T03:47:32.597Z,3.60
2022-12-09T03:50:02.851Z,3.57
2022-12-09T03:52:34.157Z,3.50
2022-12-09T03:55:05.043Z,3.43
2022-12-09T03:57:34.177Z,3.30
2022-12-09T04:00:04.198Z,3.17
2022-12-09T04:02:33.235Z,3.10
2022-12-09T04:05:03.471Z,3.10
2022-12-09T04:07:32.176Z,3.10
2022-12-09T04:10:01.222Z,3.07
2022-12-09T04:12:29.951Z,3.00
2022-12-09T04:14:58.866Z,3.30
2022-12-09T04:17:27.523Z,3.10
2022-12-09T04:19:56.817Z,2.90
2022-12-09T04:22:26.751Z,3.27
2022-12-09T04:24:55.449Z,3.13
2022-12-09T04:27:24.464Z,3.00
2022-12-09T04:29:53.158Z,3.00
2022-12-09T04:32:22.260Z,3.47
2022-12-09T04:34:51.319Z,3.27
2022-12-09T04:37:20.254Z,3.67
2022-12-09T04:39:50.428Z,3.90
2022-12-09T04:42:19.029Z,3.53
2022-12-09T04:44:48.124Z,3.70
2022-12-09T04:47:17.034Z,3.80
2022-12-09T04:49:45.928Z,3.73
2022-12-09T04:52:14.846Z,3.90
2022-12-09T04:54:43.448Z,3.47
2022-12-09T04:57:13.319Z,3.57
2022-12-09T04:59:42.000Z,3.20
2022-12-09T05:02:10.667Z,3.90
2022-12-09T05:04:39.447Z,3.50
2022-12-09T05:07:08.482Z,3.70
2022-12-09T05:09:37.249Z,3.43
2022-12-09T05:12:06.452Z,3.63
2022-12-09T05:14:36.782Z,3.40
2022-12-09T05:17:07.420Z,3.37
2022-12-09T05:19:36.202Z,3.63
2022-12-09T05:22:05.289Z,3.10
2022-12-09T05:24:34.372Z,3.50
2022-12-09T05:27:03.294Z,3.67
2022-12-09T05:29:32.045Z,4.07
2022-12-09T05:32:02.270Z,3.67
2022-12-09T05:34:31.255Z,3.73
2022-12-09T05:37:00.035Z,4.33
2022-12-09T05:39:28.692Z,4.23
2022-12-09T05:41:57.680Z,4.27
2022-12-09T05:44:26.350Z,3.67
2022-12-09T05:46:55.647Z,3.67
2022-12-09T05:49:26.078Z,4.00
2022-12-09T05:51:54.975Z,3.97
2022-12-09T05:54:23.891Z,3.33
2022-12-09T05:56:52.774Z,3.70
2022-12-09T05:59:21.638Z,3.30
2022-12-09T06:01:50.568Z,3.10
2022-12-09T06:04:19.516Z,4.13
2022-12-09T06:06:49.958Z,3.33
2022-12-09T06:09:18.871Z,3.63
2022-12-09T06:11:47.906Z,3.57
2022-12-09T06:14:16.759Z,3.00
2022-12-09T06:16:45.498Z,3.20
2022-12-09T06:19:14.574Z,3.30
2022-12-09T06:21:43.809Z,3.10
2022-12-09T06:24:13.771Z,3.30
2022-12-09T06:26:42.462Z,2.97
2022-12-09T06:29:11.665Z,3.37
2022-12-09T06:31:40.690Z,3.40
2022-12-09T06:34:09.793Z,3.10
2022-12-09T06:36:38.653Z,2.93
2022-12-09T06:39:10.632Z,2.73
2022-12-09T06:41:42.143Z,3.20
2022-12-09T06:44:14.769Z,3.50
2022-12-09T06:46:48.673Z,3.33
2022-12-09T06:49:18.096Z,3.10
2022-12-09T06:51:47.022Z,3.10
2022-12-09T06:54:16.019Z,7.93
2022-12-09T06:56:46.043Z,12.80
2022-12-09T06:59:14.995Z,13.57
2022-12-09T07:01:43.836Z,10.77
2022-12-09T07:04:14.801Z,7.00
2022-12-09T07:06:44.450Z,4.07
2022-12-09T07:09:14.753Z,4.10
2022-12-09T07:11:46.204Z,3.57
2022-12-09T07:14:18.377Z,3.53
2022-12-09T07:16:47.847Z,3.23
2022-12-09T07:19:18.966Z,3.23
2022-12-09T07:21:47.915Z,3.23
2022-12-09T07:24:18.492Z,3.20
2022-12-09T07:26:47.664Z,3.87
2022-12-09T07:29:18.016Z,3.93
2022-12-09T07:31:48.120Z,3.80
2022-12-09T07:34:17.609Z,3.93
2022-12-09T07:36:46.733Z,4.20
2022-12-09T07:39:16.490Z,4.90
2022-12-09T07:41:46.112Z,4.37
2022-12-09T07:44:15.056Z,4.40
2022-12-09T07:46:45.551Z,4.77
2022-12-09T07:49:14.426Z,5.47
2022-12-09T07:51:43.454Z,5.10
2022-12-09T07:54:13.784Z,5.13
2022-12-09T07:56:42.888Z,4.80
2022-12-09T07:59:12.962Z,4.40
2022-12-09T08:01:42.205Z,5.00
2022-12-09T08:04:12.421Z,5.03
2022-12-09T08:06:41.603Z,4.83
2022-12-09T08:09:12.635Z,5.03
2022-12-09T08:11:41.841Z,5.00
2022-12-09T08:14:12.985Z,4.37
2022-12-09T08:16:43.244Z,4.53
2022-12-09T08:19:14.564Z,4.30
2022-12-09T08:21:43.820Z,4.17
2022-12-09T08:24:14.037Z,4.00
2022-12-09T08:26:43.391Z,4.50
2022-12-09T08:29:13.130Z,4.60
2022-12-09T08:31:43.151Z,4.53
2022-12-09T08:34:14.444Z,3.93
2022-12-09T08:36:44.261Z,4.60
2022-12-09T08:39:13.227Z,4.33
2022-12-09T08:41:42.519Z,4.23
2022-12-09T08:44:13.090Z,3.67
2022-12-09T08:46:42.739Z,3.83
2022-12-09T08:49:11.996Z,4.03
2022-12-09T08:51:42.149Z,4.20
2022-12-09T08:54:11.392Z,4.07
2022-12-09T08:56:40.229Z,3.70
2022-12-09T08:59:09.040Z,3.87
2022-12-09T09:01:38.155Z,4.20
2022-12-09T09:04:08.557Z,4.07
2022-12-09T09:06:38.446Z,3.90
2022-12-09T09:09:09.194Z,3.80
2022-12-09T09:11:38.520Z,5.33
2022-12-09T09:14:08.616Z,4.87
2022-12-09T09:16:37.570Z,3.77
2022-12-09T09:19:07.016Z,4.43
2022-12-09T09:21:36.236Z,3.73
2022-12-09T09:24:11.548Z,3.80
2022-12-09T09:26:42.367Z,3.90
2022-12-09T09:29:12.621Z,3.70
2022-12-09T09:31:42.133Z,4.47
2022-12-09T09:34:11.326Z,4.63
2022-12-09T09:36:41.607Z,4.67
2022-12-09T09:39:12.525Z,4.50
2022-12-09T09:41:44.725Z,4.00
2022-12-09T09:44:17.403Z,4.07
2022-12-09T09:46:47.978Z,4.60
2022-12-09T09:49:18.946Z,4.37
2022-12-09T09:51:48.621Z,4.07
2022-12-09T09:54:18.765Z,4.03
2022-12-09T09:56:53.185Z,4.07
2022-12-09T09:59:26.332Z,4.83
2022-12-09T10:01:59.295Z,4.70
2022-12-09T10:04:32.646Z,4.77
2022-12-09T10:07:07.451Z,4.70
2022-12-09T10:09:43.307Z,5.03
2022-12-09T10:12:18.934Z,4.33
2022-12-09T10:14:54.194Z,4.50
2022-12-09T10:17:28.131Z,4.90
2022-12-09T10:19:59.183Z,4.50
2022-12-09T10:22:30.620Z,4.30
2022-12-09T10:25:01.989Z,4.13
2022-12-09T10:27:32.326Z,4.43
2022-12-09T10:30:03.616Z,4.50
2022-12-09T10:32:33.687Z,4.83
2022-12-09T10:35:02.785Z,4.27
2022-12-09T10:37:33.218Z,4.70
2022-12-09T10:40:07.458Z,4.67
2022-12-09T10:42:57.517Z,4.80
2022-12-09T10:45:35.657Z,4.93
2022-12-09T10:48:21.221Z,4.50
2022-12-09T10:50:50.182Z,4.30
2022-12-09T10:53:19.332Z,4.60
2022-12-09T10:55:52.160Z,4.90
2022-12-09T10:58:22.458Z,4.40
2022-12-09T11:01:05.225Z,4.20
2022-12-09T11:03:36.635Z,4.67
2022-12-09T11:06:12.535Z,4.57
2022-12-09T11:08:42.882Z,4.97
2022-12-09T11:11:13.849Z,4.20
2022-12-09T11:13:43.660Z,4.00
2022-12-09T11:16:13.470Z,4.60
2022-12-09T11:18:47.226Z,4.47
2022-12-09T11:21:30.787Z,4.27
2022-12-09T11:24:03.409Z,4.37
2022-12-09T11:26:38.495Z,4.60
2022-12-09T11:29:14.932Z,4.33
2022-12-09T11:31:44.581Z,4.50
2022-12-09T11:34:18.089Z,4.07
2022-12-09T11:36:48.973Z,4.37
2022-12-09T11:39:21.016Z,4.77
2022-12-09T11:42:16.570Z,4.30
2022-12-09T11:44:52.486Z,4.43
2022-12-09T11:47:36.455Z,4.50
2022-12-09T11:50:17.258Z,4.33
2022-12-09T11:52:46.063Z,4.60
2022-12-09T11:55:17.654Z,4.70
2022-12-09T11:57:50.094Z,3.97
2022-12-09T12:00:20.146Z,4.93
2022-12-09T12:02:50.591Z,4.10
2022-12-09T12:05:22.695Z,4.20
2022-12-09T12:07:54.272Z,4.20
2022-12-09T12:10:25.189Z,4.07
2022-12-09T12:13:01.194Z,3.97
2022-12-09T12:15:34.126Z,3.50
2022-12-09T12:18:05.117Z,3.60
2022-12-09T12:20:42.554Z,3.43
2022-12-09T12:23:28.826Z,3.83
2022-12-09T12:26:02.948Z,3.43
2022-12-09T12:28:39.380Z,3.20
2022-12-09T12:31:12.337Z,3.60
2022-12-09T12:36:40.566Z,3.77
2022-12-09T12:39:14.929Z,4.00
2022-12-09T12:41:48.844Z,3.53
2022-12-09T12:44:42.551Z,3.40
2022-12-09T12:47:15.630Z,3.47
2022-12-09T12:49:52.162Z,3.63
2022-12-09T12:52:54.401Z,3.10
2022-12-09T12:55:21.050Z,3.33
2022-12-09T12:57:53.922Z,3.20
2022-12-09T13:00:24.986Z,2.67
2022-12-09T13:03:01.916Z,3.00
2022-12-09T13:05:35.796Z,3.07
2022-12-09T13:08:07.915Z,3.20
2022-12-09T13:10:39.423Z,3.07
2022-12-09T13:13:11.076Z,3.20
2022-12-09T13:15:43.222Z,2.90
2022-12-09T13:18:13.554Z,2.83
2022-12-09T13:20:46.146Z,2.70
2022-12-09T13:23:19.246Z,3.00
2022-12-09T13:25:52.716Z,3.20
2022-12-09T13:28:25.327Z,3.20
2022-12-09T13:30:58.604Z,3.03
2022-12-09T13:33:33.499Z,3.40
2022-12-09T13:36:06.594Z,3.40
2022-12-09T13:38:39.507Z,3.20
2022-12-09T13:41:26.626Z,3.57
2022-12-09T13:43:55.645Z,4.23
2022-12-09T13:46:26.679Z,4.37
2022-12-09T13:48:55.865Z,5.00
2022-12-09T13:51:27.307Z,5.17
2022-12-09T13:54:02.749Z,5.53
2022-12-09T13:56:32.347Z,5.37
2022-12-09T13:59:19.686Z,5.30
2022-12-09T14:01:50.912Z,4.80
2022-12-09T14:04:22.861Z,5.00
2022-12-09T14:06:54.447Z,4.63
2022-12-09T14:09:28.681Z,4.70
2022-12-09T14:11:58.153Z,5.03
2022-12-09T14:14:39.960Z,5.47
2022-12-09T14:17:20.226Z,5.33
2022-12-09T14:19:56.564Z,5.10
2022-12-09T14:22:35.162Z,5.07
2022-12-09T14:25:22.406Z,5.20
2022-12-09T14:28:24.338Z,4.53
2022-12-09T14:30:55.878Z,5.80
2022-12-09T14:33:26.156Z,5.23
2022-12-09T14:35:58.028Z,5.10
2022-12-09T14:38:28.934Z,5.10
2022-12-09T14:41:00.985Z,4.83
2022-12-09T14:43:53.195Z,4.93
2022-12-09T14:46:28.395Z,5.37
2022-12-09T14:48:58.888Z,5.60
2022-12-09T14:51:29.693Z,5.20
2022-12-09T14:53:59.915Z,5.13
2022-12-09T14:56:29.429Z,5.33
2022-12-09T14:58:59.863Z,4.87
2022-12-09T15:01:29.780Z,5.23
2022-12-09T15:03:59.637Z,5.50
2022-12-09T15:06:28.635Z,5.53
2022-12-09T15:08:58.203Z,4.93
2022-12-09T15:11:31.280Z,5.33
2022-12-09T15:14:20.668Z,5.67
2022-12-09T15:16:51.257Z,5.37
2022-12-09T15:19:51.011Z,5.50
2022-12-09T15:22:12.408Z,5.50
2022-12-09T15:24:50.209Z,4.93
2022-12-09T15:27:20.090Z,4.97
2022-12-09T15:29:48.742Z,5.63
2022-12-09T15:32:22.702Z,4.97
2022-12-09T15:34:51.271Z,5.03
2022-12-09T15:37:21.437Z,5.40
2022-12-09T15:39:53.063Z,5.27
2022-12-09T15:42:27.055Z,5.07
2022-12-09T15:44:59.014Z,5.27
2022-12-09T15:47:31.140Z,4.93
2022-12-09T15:50:01.788Z,4.80
2022-12-09T15:52:33.260Z,4.83
2022-12-09T15:55:06.718Z,4.90
2022-12-09T15:57:36.368Z,5.27
2022-12-09T16:00:06.120Z,4.77
2022-12-09T16:02:39.665Z,4.97
2022-12-09T16:05:09.850Z,4.77
2022-12-09T16:07:38.653Z,4.30
2022-12-09T16:10:09.082Z,4.70
2022-12-09T16:12:38.108Z,4.87
2022-12-09T16:15:08.475Z,5.30
2022-12-09T16:17:52.291Z,4.90
2022-12-09T16:20:21.962Z,4.60
2022-12-09T16:22:51.028Z,4.73
2022-12-09T16:25:22.399Z,4.83
2022-12-09T16:27:52.327Z,4.53
2022-12-09T16:30:22.907Z,4.40
2022-12-09T16:32:53.871Z,4.97
2022-12-09T16:35:24.574Z,4.30
2022-12-09T16:38:16.021Z,4.37
2022-12-09T16:41:02.211Z,4.00
2022-12-09T16:43:31.605Z,3.87
2022-12-09T16:46:01.032Z,3.50
2022-12-09T16:48:31.689Z,3.80
2022-12-09T16:51:04.952Z,3.43
2022-12-09T16:53:34.936Z,3.63
2022-12-09T16:56:04.517Z,3.20
2022-12-09T16:58:34.342Z,4.03
2022-12-09T17:01:04.776Z,4.07
2022-12-09T17:03:37.201Z,3.80
2022-12-09T17:06:06.195Z,3.70
2022-12-09T17:08:36.499Z,3.83
2022-12-09T17:11:05.062Z,3.60
2022-12-09T17:13:33.762Z,3.53
2022-12-09T17:16:02.565Z,3.40
2022-12-09T17:18:31.482Z,3.40
2022-12-09T17:21:05.237Z,3.40
2022-12-09T17:23:39.359Z,3.40
2022-12-09T17:26:09.685Z,3.53
2022-12-09T17:28:39.061Z,3.70
2022-12-09T17:31:09.481Z,3.50
2022-12-09T17:33:38.354Z,3.47
2022-12-09T17:36:09.062Z,3.30
2022-12-09T17:38:37.935Z,3.37
2022-12-09T17:41:07.336Z,3.43
2022-12-09T17:43:36.306Z,3.47
2022-12-09T17:46:05.988Z,3.10
2022-12-09T17:48:35.576Z,3.50
2022-12-09T17:51:08.361Z,3.43
2022-12-09T17:53:37.378Z,3.53
2022-12-09T17:56:09.493Z,3.27
2022-12-09T17:58:38.130Z,3.40
2022-12-09T18:01:07.339Z,3.50
2022-12-09T18:06:27.023Z,3.30
2022-12-09T18:08:55.709Z,3.10
2022-12-09T18:11:24.758Z,3.47
2022-12-09T18:13:53.822Z,3.20
2022-12-09T18:16:22.652Z,3.43
2022-12-09T18:18:51.505Z,3.10
2022-12-09T18:21:20.466Z,3.30
2022-12-09T18:23:50.549Z,4.03
2022-12-09T18:26:19.935Z,4.13
2022-12-09T18:28:48.494Z,3.67
2022-12-09T18:31:19.012Z,4.20
2022-12-09T18:33:47.720Z,4.27
2022-12-09T18:36:17.186Z,3.90
2022-12-09T18:38:46.211Z,3.90
2022-12-09T18:41:17.167Z,4.37
2022-12-09T18:43:46.785Z,3.67
2022-12-09T18:46:19.372Z,4.17
2022-12-09T18:48:56.221Z,4.07
2022-12-09T18:51:24.768Z,3.97
2022-12-09T18:53:53.652Z,4.20
2022-12-09T18:56:23.565Z,4.60
2022-12-09T18:59:09.060Z,4.90
2022-12-09T19:01:40.184Z,4.40
2022-12-09T19:04:10.469Z,4.07
2022-12-09T19:06:40.569Z,4.20
2022-12-09T19:09:10.070Z,4.10
2022-12-09T19:11:40.751Z,4.20
2022-12-09T19:14:10.312Z,4.60
2022-12-09T19:16:39.303Z,6.00
2022-12-09T19:19:10.326Z,4.83
2022-12-09T19:21:40.044Z,5.07
2022-12-09T19:24:09.281Z,5.30
2022-12-09T19:26:38.127Z,4.80
2022-12-09T19:29:08.827Z,5.30
2022-12-09T19:31:38.336Z,4.87
2022-12-09T19:34:08.980Z,4.87
2022-12-09T19:36:37.559Z,4.83
2022-12-09T19:39:09.445Z,5.10
2022-12-09T19:41:38.592Z,5.70
2022-12-09T19:44:08.699Z,5.40
2022-12-09T19:46:38.333Z,5.57
2022-12-09T19:49:07.010Z,6.40
2022-12-09T19:51:35.554Z,6.70
2022-12-09T19:54:04.219Z,6.27
2022-12-09T19:56:32.775Z,6.73
2022-12-09T19:59:01.450Z,6.20
2022-12-09T20:01:32.560Z,6.20
2022-12-09T20:04:18.993Z,5.60
2022-12-09T20:06:52.208Z,5.87
2022-12-09T20:09:24.302Z,5.93
2022-12-09T20:11:54.071Z,5.80
2022-12-09T20:14:22.650Z,5.53
2022-12-09T20:16:52.542Z,5.60
2022-12-09T20:19:21.088Z,5.77
2022-12-09T20:21:49.674Z,5.43
2022-12-09T20:24:18.283Z,5.57
2022-12-09T20:26:46.911Z,5.27
2022-12-09T20:29:15.539Z,4.87
2022-12-09T20:31:44.371Z,5.07
2022-12-09T20:34:15.880Z,5.30
2022-12-09T20:36:45.403Z,5.53
2022-12-09T20:39:15.504Z,6.07
2022-12-09T20:41:44.471Z,6.03
2022-12-09T20:44:13.983Z,5.57
2022-12-09T20:46:46.021Z,6.23
2022-12-09T20:49:16.125Z,6.80
2022-12-09T20:51:46.879Z,6.57
2022-12-09T20:54:15.473Z,6.90
2022-12-09T20:56:44.171Z,8.57
2022-12-09T20:59:13.533Z,9.30
2022-12-09T21:01:43.426Z,8.43
2022-12-09T21:04:12.127Z,7.97
2022-12-09T21:06:42.972Z,8.20
2022-12-09T21:09:13.933Z,8.60
2022-12-09T21:11:42.488Z,8.10
2022-12-09T21:14:12.163Z,7.73
2022-12-09T21:16:41.525Z,8.17
2022-12-09T21:19:12.583Z,7.67
2022-12-09T21:21:45.214Z,7.23
2022-12-09T21:24:14.027Z,6.87
2022-12-09T21:26:43.045Z,7.47
2022-12-09T21:29:12.336Z,7.87
2022-12-09T21:31:41.687Z,8.70
2022-12-09T21:34:11.118Z,9.03
2022-12-09T21:36:41.138Z,9.13
2022-12-09T21:39:13.096Z,8.43
2022-12-09T21:41:41.981Z,7.93
2022-12-09T21:44:14.807Z,8.10
2022-12-09T21:46:43.368Z,7.33
2022-12-09T21:49:12.702Z,7.63
2022-12-09T21:51:41.478Z,8.17
2022-12-09T21:54:11.417Z,8.10
2022-12-09T21:56:39.974Z,9.30
2022-12-09T21:59:08.939Z,9.23
2022-12-09T22:01:38.586Z,9.43
2022-12-09T22:04:08.241Z,8.10
2022-12-09T22:06:37.009Z,7.83
2022-12-09T22:09:06.363Z,7.60
2022-12-09T22:11:37.699Z,8.27
2022-12-09T22:14:07.031Z,7.37
2022-12-09T22:16:36.554Z,7.07
2022-12-09T22:19:06.158Z,6.60
2022-12-09T22:21:35.090Z,6.47
2022-12-09T22:24:05.039Z,6.47
2022-12-09T22:26:34.020Z,7.70
2022-12-09T22:29:05.407Z,6.97
2022-12-09T22:31:35.226Z,7.00
2022-12-09T22:34:04.921Z,7.13
2022-12-09T22:36:34.508Z,7.27
2022-12-09T22:39:03.118Z,6.70
2022-12-09T22:41:31.682Z,6.37
2022-12-09T22:44:00.213Z,6.13
2022-12-09T22:46:31.289Z,7.50
2022-12-09T22:49:02.030Z,7.10
2022-12-09T22:51:31.425Z,6.37
2022-12-09T22:54:00.803Z,6.40
2022-12-09T22:56:29.477Z,6.30
2022-12-09T22:58:58.279Z,5.97
2022-12-09T23:01:27.660Z,6.23
2022-12-09T23:03:58.310Z,5.50
2022-12-09T23:06:27.754Z,6.07
2022-12-09T23:08:56.730Z,6.10
2022-12-09T23:11:26.373Z,4.97
2022-12-09T23:13:55.295Z,6.07
2022-12-09T23:16:24.970Z,6.40
2022-12-09T23:18:54.086Z,6.90
2022-12-09T23:21:25.357Z,8.57
2022-12-09T23:23:54.449Z,8.07
2022-12-09T23:26:25.615Z,8.20
2022-12-09T23:28:55.061Z,7.73
2022-12-09T23:31:24.885Z,8.97
2022-12-09T23:33:54.050Z,8.50
2022-12-09T23:36:24.913Z,9.63
2022-12-09T23:38:54.000Z,9.57
2022-12-09T23:41:23.456Z,9.50
2022-12-09T23:43:52.819Z,9.53
2022-12-09T23:46:23.264Z,8.80
2022-12-09T23:48:52.744Z,8.93
2022-12-09T23:51:22.062Z,9.17
2022-12-09T23:53:52.587Z,9.10
2022-12-09T23:56:22.618Z,8.87
2022-12-09T23:58:55.011Z,8.57
